sensor_id;sensor_type;location;lat;lon;timestamp;noise_LAeq;noise_LA_min;noise_LA_max;noise_LA01;noise_LA95
43385;Laerm;28988;48.042;7.584;2023-05-10T00:00:30;84.43;-33.10;95.62;;
43385;Laerm;28988;48.042;7.584;2023-05-10T00:02:56;84.42;-31.18;96.14;;
43385;Laerm;28988;48.042;7.584;2023-05-10T00:05:21;84.39;-28.29;95.67;;
43385;Laerm;28988;48.042;7.584;2023-05-10T00:07:46;84.38;-29.88;95.71;;
43385;Laerm;28988;48.042;7.584;2023-05-10T00:10:11;84.38;-57.68;95.43;;
43385;Laerm;28988;48.042;7.584;2023-05-10T00:12:36;84.39;-20.57;95.80;;
43385;Laerm;28988;48.042;7.584;2023-05-10T00:15:02;84.39;-24.06;95.58;;
43385;Laerm;28988;48.042;7.584;2023-05-10T00:17:27;84.40;-29.35;95.79;;
43385;Laerm;28988;48.042;7.584;2023-05-10T00:19:53;84.40;-23.73;96.11;;
43385;Laerm;28988;48.042;7.584;2023-05-10T00:22:18;84.38;-55.61;95.71;;
43385;Laerm;28988;48.042;7.584;2023-05-10T00:24:43;84.36;-39.78;95.45;;
43385;Laerm;28988;48.042;7.584;2023-05-10T00:27:08;84.38;-26.87;95.60;;
43385;Laerm;28988;48.042;7.584;2023-05-10T00:29:33;84.35;-23.73;95.98;;
43385;Laerm;28988;48.042;7.584;2023-05-10T00:31:59;84.36;-28.29;95.64;;
43385;Laerm;28988;48.042;7.584;2023-05-10T00:34:24;84.34;-23.73;95.39;;
43385;Laerm;28988;48.042;7.584;2023-05-10T00:36:49;84.34;-28.29;95.35;;
43385;Laerm;28988;48.042;7.584;2023-05-10T00:39:14;84.36;-40.95;95.16;;
43385;Laerm;28988;48.042;7.584;2023-05-10T00:41:40;84.35;-59.07;95.47;;
43385;Laerm;28988;48.042;7.584;2023-05-10T00:44:05;84.35;-57.68;95.17;;
43385;Laerm;28988;48.042;7.584;2023-05-10T00:46:30;84.35;-33.66;95.56;;
43385;Laerm;28988;48.042;7.584;2023-05-10T00:48:56;84.37;-23.73;95.54;;
43385;Laerm;28988;48.042;7.584;2023-05-10T00:51:21;84.36;-23.73;95.58;;
43385;Laerm;28988;48.042;7.584;2023-05-10T00:53:46;84.36;-45.84;95.47;;
43385;Laerm;28988;48.042;7.584;2023-05-10T00:56:12;84.34;-23.73;96.02;;
43385;Laerm;28988;48.042;7.584;2023-05-10T00:58:37;84.34;-39.89;95.86;;
43385;Laerm;28988;48.042;7.584;2023-05-10T01:01:02;84.34;-57.68;95.39;;
43385;Laerm;28988;48.042;7.584;2023-05-10T01:03:27;84.35;-57.68;95.28;;
43385;Laerm;28988;48.042;7.584;2023-05-10T01:05:53;84.35;-28.29;95.22;;
43385;Laerm;28988;48.042;7.584;2023-05-10T01:08:18;84.36;-57.68;95.76;;
43385;Laerm;28988;48.042;7.584;2023-05-10T01:10:43;84.39;-31.18;95.60;;
43385;Laerm;28988;48.042;7.584;2023-05-10T01:13:09;84.41;-39.78;95.71;;
43385;Laerm;28988;48.042;7.584;2023-05-10T01:15:34;84.39;-25.52;96.29;;
43385;Laerm;28988;48.042;7.584;2023-05-10T01:18:00;84.42;-31.18;95.80;;
43385;Laerm;28988;48.042;7.584;2023-05-10T01:20:26;84.46;-23.80;95.97;;
43385;Laerm;28988;48.042;7.584;2023-05-10T01:35:40;85.92;-34.88;97.66;;
43385;Laerm;28988;48.042;7.584;2023-05-10T01:38:29;86.25;-30.54;97.79;;
43385;Laerm;28988;48.042;7.584;2023-05-10T01:41:01;86.58;-26.98;99.28;;
43385;Laerm;28988;48.042;7.584;2023-05-10T01:43:30;87.01;-39.04;98.94;;
43385;Laerm;28988;48.042;7.584;2023-05-10T01:46:08;87.12;-39.73;98.90;;
43385;Laerm;28988;48.042;7.584;2023-05-10T01:48:52;87.26;-27.26;98.81;;
43385;Laerm;28988;48.042;7.584;2023-05-10T01:51:23;87.47;-29.97;101.39;;
43385;Laerm;28988;48.042;7.584;2023-05-10T01:53:48;87.35;-37.67;99.28;;
43385;Laerm;28988;48.042;7.584;2023-05-10T01:56:14;87.22;-36.36;99.24;;
43385;Laerm;28988;48.042;7.584;2023-05-10T01:58:40;87.27;-27.35;99.93;;
43385;Laerm;28988;48.042;7.584;2023-05-10T02:01:07;87.17;-43.84;99.74;;
43385;Laerm;28988;48.042;7.584;2023-05-10T02:03:33;87.06;-24.73;98.55;;
43385;Laerm;28988;48.042;7.584;2023-05-10T02:06:00;86.93;-22.61;98.81;;
43385;Laerm;28988;48.042;7.584;2023-05-10T02:08:27;86.75;-21.74;96.91;;
43385;Laerm;28988;48.042;7.584;2023-05-10T02:10:53;86.63;-26.25;98.39;;
43385;Laerm;28988;48.042;7.584;2023-05-10T02:13:19;86.64;-39.77;100.06;;
43385;Laerm;28988;48.042;7.584;2023-05-10T02:15:46;86.52;-38.65;97.21;;
43385;Laerm;28988;48.042;7.584;2023-05-10T02:18:12;86.52;-36.67;97.84;;
43385;Laerm;28988;48.042;7.584;2023-05-10T02:20:38;86.56;-26.19;97.36;;
43385;Laerm;28988;48.042;7.584;2023-05-10T02:23:04;86.65;-41.78;99.32;;
43385;Laerm;28988;48.042;7.584;2023-05-10T02:25:30;86.73;-38.65;97.26;;
43385;Laerm;28988;48.042;7.584;2023-05-10T02:27:56;86.56;-38.65;98.54;;
43385;Laerm;28988;48.042;7.584;2023-05-10T02:30:22;86.60;-39.66;97.07;;
43385;Laerm;28988;48.042;7.584;2023-05-10T02:32:48;86.85;-21.24;100.05;;
43385;Laerm;28988;48.042;7.584;2023-05-10T02:35:14;87.01;-37.51;99.80;;
43385;Laerm;28988;48.042;7.584;2023-05-10T02:37:40;87.03;-27.49;98.14;;
43385;Laerm;28988;48.042;7.584;2023-05-10T02:40:06;86.96;-39.78;97.61;;
43385;Laerm;28988;48.042;7.584;2023-05-10T02:42:32;87.12;-27.64;102.02;;
43385;Laerm;28988;48.042;7.584;2023-05-10T02:45:00;87.13;-13.31;99.79;;
43385;Laerm;28988;48.042;7.584;2023-05-10T02:47:26;87.08;-38.62;98.10;;
43385;Laerm;28988;48.042;7.584;2023-05-10T02:49:51;87.00;-26.78;98.42;;
43385;Laerm;28988;48.042;7.584;2023-05-10T02:52:19;86.80;-45.36;98.16;;
43385;Laerm;28988;48.042;7.584;2023-05-10T02:54:47;86.79;-59.49;100.22;;
43385;Laerm;28988;48.042;7.584;2023-05-10T02:57:15;86.81;-39.13;98.54;;
43385;Laerm;28988;48.042;7.584;2023-05-10T02:59:44;86.75;-43.59;98.90;;
43385;Laerm;28988;48.042;7.584;2023-05-10T03:02:10;86.71;-38.65;97.67;;
43385;Laerm;28988;48.042;7.584;2023-05-10T03:04:36;86.65;-31.14;99.77;;
43385;Laerm;28988;48.042;7.584;2023-05-10T03:07:01;85.79;-32.33;99.38;;
43385;Laerm;28988;48.042;7.584;2023-05-10T03:09:26;85.49;-41.49;99.71;;
43385;Laerm;28988;48.042;7.584;2023-05-10T03:11:56;85.92;-39.22;96.73;;
43385;Laerm;28988;48.042;7.584;2023-05-10T03:17:10;87.25;-41.36;99.72;;
43385;Laerm;28988;48.042;7.584;2023-05-10T03:19:48;87.86;-43.79;99.53;;
43385;Laerm;28988;48.042;7.584;2023-05-10T03:22:19;88.19;-25.86;99.55;;
43385;Laerm;28988;48.042;7.584;2023-05-10T03:24:46;88.44;-24.22;100.69;;
43385;Laerm;28988;48.042;7.584;2023-05-10T03:27:12;88.66;-36.45;101.40;;
43385;Laerm;28988;48.042;7.584;2023-05-10T03:29:39;88.87;-25.72;99.52;;
43385;Laerm;28988;48.042;7.584;2023-05-10T03:32:04;88.99;-22.82;100.79;;
43385;Laerm;28988;48.042;7.584;2023-05-10T03:34:29;89.04;-38.45;100.48;;
43385;Laerm;28988;48.042;7.584;2023-05-10T03:36:55;89.30;-40.96;102.37;;
43385;Laerm;28988;48.042;7.584;2023-05-10T03:39:20;89.56;-41.67;101.29;;
43385;Laerm;28988;48.042;7.584;2023-05-10T03:41:46;89.69;-20.27;101.16;;
43385;Laerm;28988;48.042;7.584;2023-05-10T03:44:11;89.86;-40.96;100.31;;
43385;Laerm;28988;48.042;7.584;2023-05-10T03:46:36;89.98;-72.50;102.82;;
43385;Laerm;28988;48.042;7.584;2023-05-10T03:49:01;90.03;-27.98;101.00;;
43385;Laerm;28988;48.042;7.584;2023-05-10T03:51:27;89.82;-38.35;101.55;;
43385;Laerm;28988;48.042;7.584;2023-05-10T03:53:56;89.71;-44.77;101.36;;
43385;Laerm;28988;48.042;7.584;2023-05-10T03:56:21;89.68;-31.46;102.46;;
43385;Laerm;28988;48.042;7.584;2023-05-10T03:58:46;89.71;-44.98;102.61;;
43385;Laerm;28988;48.042;7.584;2023-05-10T04:01:12;89.59;-34.65;100.95;;
43385;Laerm;28988;48.042;7.584;2023-05-10T04:03:37;89.62;-32.03;100.15;;
43385;Laerm;28988;48.042;7.584;2023-05-10T04:06:03;89.56;-41.58;101.00;;
43385;Laerm;28988;48.042;7.584;2023-05-10T04:08:28;89.70;-48.53;102.64;;
43385;Laerm;28988;48.042;7.584;2023-05-10T04:10:54;89.68;-19.95;101.37;;
43385;Laerm;28988;48.042;7.584;2023-05-10T04:13:19;89.67;-47.37;101.05;;
43385;Laerm;28988;48.042;7.584;2023-05-10T04:15:44;89.73;-44.58;100.76;;
43385;Laerm;28988;48.042;7.584;2023-05-10T04:18:09;89.89;-23.25;102.91;;
43385;Laerm;28988;48.042;7.584;2023-05-10T04:20:35;90.09;-19.77;102.03;;
43385;Laerm;28988;48.042;7.584;2023-05-10T04:23:00;90.28;-37.04;101.38;;
43385;Laerm;28988;48.042;7.584;2023-05-10T04:25:26;90.21;-35.94;100.80;;
43385;Laerm;28988;48.042;7.584;2023-05-10T04:27:51;90.14;-24.79;102.99;;
43385;Laerm;28988;48.042;7.584;2023-05-10T04:30:16;90.14;-29.32;102.24;;
43385;Laerm;28988;48.042;7.584;2023-05-10T04:32:41;89.95;-31.99;101.69;;
43385;Laerm;28988;48.042;7.584;2023-05-10T04:35:07;89.95;-45.56;101.22;;
43385;Laerm;28988;48.042;7.584;2023-05-10T04:37:32;89.92;-44.03;100.79;;
43385;Laerm;28988;48.042;7.584;2023-05-10T04:39:57;90.09;-29.58;103.18;;
43385;Laerm;28988;48.042;7.584;2023-05-10T04:42:24;90.08;-32.36;101.14;;
43385;Laerm;28988;48.042;7.584;2023-05-10T04:44:50;89.83;-47.15;100.75;;
43385;Laerm;28988;48.042;7.584;2023-05-10T04:47:16;89.66;-32.73;102.07;;
43385;Laerm;28988;48.042;7.584;2023-05-10T04:49:41;89.51;-22.20;102.50;;
43385;Laerm;28988;48.042;7.584;2023-05-10T04:52:07;89.35;-38.81;100.95;;
43385;Laerm;28988;48.042;7.584;2023-05-10T04:54:32;89.25;-23.18;101.01;;
43385;Laerm;28988;48.042;7.584;2023-05-10T04:56:57;89.05;-23.25;99.89;;
43385;Laerm;28988;48.042;7.584;2023-05-10T04:59:22;88.90;-24.81;101.01;;
43385;Laerm;28988;48.042;7.584;2023-05-10T05:01:47;88.83;-38.71;102.52;;
43385;Laerm;28988;48.042;7.584;2023-05-10T05:04:13;88.57;-31.66;100.64;;
43385;Laerm;28988;48.042;7.584;2023-05-10T05:06:39;88.26;-30.82;99.96;;
43385;Laerm;28988;48.042;7.584;2023-05-10T05:09:04;88.13;-30.41;99.47;;
43385;Laerm;28988;48.042;7.584;2023-05-10T05:11:29;88.09;-38.01;101.32;;
43385;Laerm;28988;48.042;7.584;2023-05-10T05:13:55;88.04;-52.22;100.00;;
43385;Laerm;28988;48.042;7.584;2023-05-10T05:16:20;88.01;-39.45;98.74;;
43385;Laerm;28988;48.042;7.584;2023-05-10T05:18:45;87.76;-33.66;99.71;;
43385;Laerm;28988;48.042;7.584;2023-05-10T05:21:14;87.70;-28.79;100.37;;
43385;Laerm;28988;48.042;7.584;2023-05-10T05:23:40;87.66;-36.03;100.89;;
43385;Laerm;28988;48.042;7.584;2023-05-10T05:26:05;87.58;-33.82;99.36;;
43385;Laerm;28988;48.042;7.584;2023-05-10T05:28:30;87.41;-25.98;98.53;;
43385;Laerm;28988;48.042;7.584;2023-05-10T05:30:57;87.07;-36.39;100.65;;
43385;Laerm;28988;48.042;7.584;2023-05-10T05:33:22;86.56;-21.61;99.08;;
43385;Laerm;28988;48.042;7.584;2023-05-10T05:35:48;87.43;-18.66;99.22;;
43385;Laerm;28988;48.042;7.584;2023-05-10T05:38:15;87.77;-29.55;100.19;;
43385;Laerm;28988;48.042;7.584;2023-05-10T05:40:41;88.09;-19.65;99.78;;
43385;Laerm;28988;48.042;7.584;2023-05-10T05:43:06;88.45;-30.58;100.97;;
43385;Laerm;28988;48.042;7.584;2023-05-10T05:45:31;88.57;-49.50;101.01;;
43385;Laerm;28988;48.042;7.584;2023-05-10T05:47:56;89.00;-20.47;100.05;;
43385;Laerm;28988;48.042;7.584;2023-05-10T05:50:21;89.34;-23.52;102.00;;
43385;Laerm;28988;48.042;7.584;2023-05-10T05:52:46;89.80;-60.91;102.97;;
43385;Laerm;28988;48.042;7.584;2023-05-10T05:55:12;89.95;-28.22;101.59;;
43385;Laerm;28988;48.042;7.584;2023-05-10T05:57:37;89.78;-28.12;101.28;;
43385;Laerm;28988;48.042;7.584;2023-05-10T06:00:03;89.63;-23.12;100.69;;
43385;Laerm;28988;48.042;7.584;2023-05-10T06:02:28;89.56;-57.87;100.92;;
43385;Laerm;28988;48.042;7.584;2023-05-10T06:04:54;89.16;-21.12;101.75;;
43385;Laerm;28988;48.042;7.584;2023-05-10T06:07:19;86.14;-33.69;98.04;;
43385;Laerm;28988;48.042;7.584;2023-05-10T06:09:44;86.76;-18.20;97.23;;
43385;Laerm;28988;48.042;7.584;2023-05-10T06:12:09;86.93;-84.25;99.63;;
43385;Laerm;28988;48.042;7.584;2023-05-10T06:14:36;86.82;-38.65;100.03;;
43385;Laerm;28988;48.042;7.584;2023-05-10T06:17:01;86.46;-45.84;98.60;;
43385;Laerm;28988;48.042;7.584;2023-05-10T06:19:28;86.08;-30.70;97.81;;
43385;Laerm;28988;48.042;7.584;2023-05-10T06:21:54;86.39;-47.13;99.12;;
43385;Laerm;28988;48.042;7.584;2023-05-10T06:24:19;86.18;-49.31;99.81;;
43385;Laerm;28988;48.042;7.584;2023-05-10T06:26:44;85.97;-33.82;97.56;;
43385;Laerm;28988;48.042;7.584;2023-05-10T06:29:09;85.92;-36.67;96.96;;
43385;Laerm;28988;48.042;7.584;2023-05-10T06:31:34;85.91;-30.71;97.25;;
43385;Laerm;28988;48.042;7.584;2023-05-10T06:33:59;85.77;-31.14;98.27;;
43385;Laerm;28988;48.042;7.584;2023-05-10T06:36:25;85.72;-45.84;98.11;;
43385;Laerm;28988;48.042;7.584;2023-05-10T06:38:51;85.58;-46.21;96.81;;
43385;Laerm;28988;48.042;7.584;2023-05-10T06:41:16;85.56;-53.75;96.70;;
43385;Laerm;28988;48.042;7.584;2023-05-10T06:43:42;85.26;-22.20;97.20;;
43385;Laerm;28988;48.042;7.584;2023-05-10T06:46:08;85.20;-52.22;98.03;;
43385;Laerm;28988;48.042;7.584;2023-05-10T06:48:33;85.10;-51.62;98.04;;
43385;Laerm;28988;48.042;7.584;2023-05-10T06:50:58;85.00;-52.22;96.22;;
43385;Laerm;28988;48.042;7.584;2023-05-10T06:53:24;84.83;-58.52;96.20;;
43385;Laerm;28988;48.042;7.584;2023-05-10T06:55:49;84.77;-43.85;96.20;;
43385;Laerm;28988;48.042;7.584;2023-05-10T06:58:14;84.92;-47.13;97.42;;
43385;Laerm;28988;48.042;7.584;2023-05-10T07:00:39;85.07;-38.42;96.77;;
43385;Laerm;28988;48.042;7.584;2023-05-10T07:03:07;85.14;-39.66;96.81;;
43385;Laerm;28988;48.042;7.584;2023-05-10T07:05:32;85.03;-33.78;97.00;;
43385;Laerm;28988;48.042;7.584;2023-05-10T07:07:58;84.95;-39.78;96.44;;
43385;Laerm;28988;48.042;7.584;2023-05-10T07:10:23;84.90;-46.75;96.96;;
43385;Laerm;28988;48.042;7.584;2023-05-10T07:12:48;84.75;-45.61;96.13;;
43385;Laerm;28988;48.042;7.584;2023-05-10T07:15:13;84.63;-29.06;95.85;;
43385;Laerm;28988;48.042;7.584;2023-05-10T07:17:39;84.51;-69.03;96.31;;
43385;Laerm;28988;48.042;7.584;2023-05-10T07:20:04;84.53;-39.78;96.15;;
43385;Laerm;28988;48.042;7.584;2023-05-10T07:22:30;84.49;-75.59;95.51;;
43385;Laerm;28988;48.042;7.584;2023-05-10T07:24:56;84.48;-47.13;96.72;;
43385;Laerm;28988;48.042;7.584;2023-05-10T07:27:21;84.46;-39.78;96.05;;
43385;Laerm;28988;48.042;7.584;2023-05-10T07:29:46;84.44;-57.68;95.61;;
43385;Laerm;28988;48.042;7.584;2023-05-10T07:32:11;84.44;-57.68;97.77;;
43385;Laerm;28988;48.042;7.584;2023-05-10T07:34:37;84.40;-34.16;95.51;;
43385;Laerm;28988;48.042;7.584;2023-05-10T07:37:02;84.38;-45.59;95.73;;
43385;Laerm;28988;48.042;7.584;2023-05-10T07:39:27;84.36;-28.29;95.69;;
43385;Laerm;28988;48.042;7.584;2023-05-10T07:41:52;84.37;-28.29;95.10;;
43385;Laerm;28988;48.042;7.584;2023-05-10T07:44:18;84.32;-23.73;94.70;;
43385;Laerm;28988;48.042;7.584;2023-05-10T07:46:44;84.33;-31.18;95.64;;
43385;Laerm;28988;48.042;7.584;2023-05-10T07:49:09;84.32;-23.73;95.63;;
43385;Laerm;28988;48.042;7.584;2023-05-10T07:51:34;84.32;-22.63;95.44;;
43385;Laerm;28988;48.042;7.584;2023-05-10T07:53:59;84.32;-39.98;95.67;;
43385;Laerm;28988;48.042;7.584;2023-05-10T07:56:25;84.31;-57.68;95.70;;
43385;Laerm;28988;48.042;7.584;2023-05-10T07:58:54;84.30;-23.73;94.94;;
43385;Laerm;28988;48.042;7.584;2023-05-10T08:01:20;84.26;-57.68;95.27;;
43385;Laerm;28988;48.042;7.584;2023-05-10T08:03:45;84.27;-23.73;95.01;;
43385;Laerm;28988;48.042;7.584;2023-05-10T08:06:10;84.26;-57.68;95.22;;
43385;Laerm;28988;48.042;7.584;2023-05-10T08:08:36;84.27;-28.29;95.04;;
43385;Laerm;28988;48.042;7.584;2023-05-10T08:11:01;84.29;-57.68;94.67;;
43385;Laerm;28988;48.042;7.584;2023-05-10T08:13:26;84.27;-23.73;95.16;;
43385;Laerm;28988;48.042;7.584;2023-05-10T08:15:51;84.29;-23.73;94.89;;
43385;Laerm;28988;48.042;7.584;2023-05-10T08:18:18;84.27;-57.68;95.34;;
43385;Laerm;28988;48.042;7.584;2023-05-10T08:20:43;84.29;-23.73;95.07;;
43385;Laerm;28988;48.042;7.584;2023-05-10T08:23:08;84.31;-57.68;95.26;;
43385;Laerm;28988;48.042;7.584;2023-05-10T08:25:33;84.33;-22.63;95.67;;
43385;Laerm;28988;48.042;7.584;2023-05-10T08:27:58;84.36;-33.10;95.69;;
43385;Laerm;28988;48.042;7.584;2023-05-10T08:30:23;84.37;-57.68;95.28;;
43385;Laerm;28988;48.042;7.584;2023-05-10T08:32:49;84.39;-57.68;96.41;;
43385;Laerm;28988;48.042;7.584;2023-05-10T08:35:15;84.38;-24.05;96.18;;
43385;Laerm;28988;48.042;7.584;2023-05-10T08:37:40;84.39;-57.68;95.63;;
43385;Laerm;28988;48.042;7.584;2023-05-10T08:40:05;84.38;-39.78;95.36;;
43385;Laerm;28988;48.042;7.584;2023-05-10T08:42:31;84.37;-23.73;95.76;;
43385;Laerm;28988;48.042;7.584;2023-05-10T08:44:59;84.34;-57.68;95.78;;
43385;Laerm;28988;48.042;7.584;2023-05-10T08:47:25;84.34;-57.68;95.63;;
43385;Laerm;28988;48.042;7.584;2023-05-10T08:49:51;84.34;-28.29;95.98;;
43385;Laerm;28988;48.042;7.584;2023-05-10T08:52:16;84.33;-57.68;95.82;;
43385;Laerm;28988;48.042;7.584;2023-05-10T08:54:42;84.33;-25.49;95.19;;
43385;Laerm;28988;48.042;7.584;2023-05-10T08:57:07;84.30;-57.68;95.05;;
43385;Laerm;28988;48.042;7.584;2023-05-10T08:59:33;84.28;-57.68;95.60;;
43385;Laerm;28988;48.042;7.584;2023-05-10T09:01:58;84.29;-22.63;95.27;;
43385;Laerm;28988;48.042;7.584;2023-05-10T09:04:24;84.27;-57.68;94.01;;
43385;Laerm;28988;48.042;7.584;2023-05-10T09:06:50;84.25;-28.29;94.56;;
43385;Laerm;28988;48.042;7.584;2023-05-10T09:09:15;84.24;-22.63;95.12;;
43385;Laerm;28988;48.042;7.584;2023-05-10T09:11:41;84.22;-37.35;94.15;;
43385;Laerm;28988;48.042;7.584;2023-05-10T09:14:07;84.22;-57.68;94.57;;
43385;Laerm;28988;48.042;7.584;2023-05-10T09:16:32;84.23;-57.68;94.91;;
43385;Laerm;28988;48.042;7.584;2023-05-10T09:18:57;84.23;-33.10;94.28;;
43385;Laerm;28988;48.042;7.584;2023-05-10T09:21:22;84.24;-57.68;94.60;;
43385;Laerm;28988;48.042;7.584;2023-05-10T09:23:48;84.22;-57.68;94.76;;
43385;Laerm;28988;48.042;7.584;2023-05-10T09:26:14;84.20;-46.21;94.15;;
43385;Laerm;28988;48.042;7.584;2023-05-10T09:28:53;84.21;-57.68;94.36;;
43385;Laerm;28988;48.042;7.584;2023-05-10T09:31:18;84.18;-33.10;94.30;;
43385;Laerm;28988;48.042;7.584;2023-05-10T09:33:44;84.18;-23.73;94.10;;
43385;Laerm;28988;48.042;7.584;2023-05-10T09:36:10;84.19;-57.68;93.70;;
43385;Laerm;28988;48.042;7.584;2023-05-10T09:38:45;84.20;-28.29;94.45;;
43385;Laerm;28988;48.042;7.584;2023-05-10T09:41:15;84.20;-28.29;94.44;;
43385;Laerm;28988;48.042;7.584;2023-05-10T09:43:41;84.20;-57.68;94.15;;
43385;Laerm;28988;48.042;7.584;2023-05-10T09:46:08;84.20;-57.68;94.11;;
43385;Laerm;28988;48.042;7.584;2023-05-10T09:48:33;84.20;-57.68;94.12;;
43385;Laerm;28988;48.042;7.584;2023-05-10T09:50:59;84.22;-59.49;94.32;;
43385;Laerm;28988;48.042;7.584;2023-05-10T09:53:24;84.20;-57.68;94.15;;
43385;Laerm;28988;48.042;7.584;2023-05-10T09:55:49;84.20;-23.73;93.84;;
43385;Laerm;28988;48.042;7.584;2023-05-10T09:58:15;84.20;-34.16;93.96;;
43385;Laerm;28988;48.042;7.584;2023-05-10T10:00:42;84.19;-34.16;94.12;;
43385;Laerm;28988;48.042;7.584;2023-05-10T10:03:14;84.20;-33.10;94.92;;
43385;Laerm;28988;48.042;7.584;2023-05-10T10:05:40;84.19;-33.10;94.34;;
43385;Laerm;28988;48.042;7.584;2023-05-10T10:08:06;84.20;-57.68;94.00;;
43385;Laerm;28988;48.042;7.584;2023-05-10T10:10:32;84.19;-28.29;93.93;;
43385;Laerm;28988;48.042;7.584;2023-05-10T10:12:57;84.18;-28.29;93.67;;
43385;Laerm;28988;48.042;7.584;2023-05-10T10:15:23;84.17;-57.68;94.13;;
43385;Laerm;28988;48.042;7.584;2023-05-10T10:17:49;84.16;-57.68;93.18;;
43385;Laerm;28988;48.042;7.584;2023-05-10T10:20:15;84.16;-35.36;93.84;;
43385;Laerm;28988;48.042;7.584;2023-05-10T10:22:40;84.16;-33.10;93.49;;
43385;Laerm;28988;48.042;7.584;2023-05-10T10:25:08;84.16;-38.65;93.53;;
43385;Laerm;28988;48.042;7.584;2023-05-10T10:32:42;84.15;-57.68;92.94;;
43385;Laerm;28988;48.042;7.584;2023-05-10T10:35:11;84.15;-23.73;93.94;;
43385;Laerm;28988;48.042;7.584;2023-05-10T10:37:43;84.15;-29.76;93.53;;
43385;Laerm;28988;48.042;7.584;2023-05-10T10:40:28;84.16;-33.10;94.10;;
43385;Laerm;28988;48.042;7.584;2023-05-10T10:42:54;84.16;-57.68;93.29;;
43385;Laerm;28988;48.042;7.584;2023-05-10T10:45:20;84.16;-57.68;92.99;;
43385;Laerm;28988;48.042;7.584;2023-05-10T10:47:46;84.14;-34.16;93.18;;
43385;Laerm;28988;48.042;7.584;2023-05-10T10:50:11;84.15;-57.68;93.67;;
43385;Laerm;28988;48.042;7.584;2023-05-10T10:52:41;84.14;-23.73;93.36;;
43385;Laerm;28988;48.042;7.584;2023-05-10T10:55:28;84.14;-57.68;93.08;;
43385;Laerm;28988;48.042;7.584;2023-05-10T10:57:55;84.14;-57.68;93.13;;
43385;Laerm;28988;48.042;7.584;2023-05-10T11:00:32;84.14;-23.73;93.81;;
43385;Laerm;28988;48.042;7.584;2023-05-10T11:03:10;84.15;-57.68;93.69;;
43385;Laerm;28988;48.042;7.584;2023-05-10T11:05:42;84.16;-34.16;93.69;;
43385;Laerm;28988;48.042;7.584;2023-05-10T11:10:36;84.17;-57.68;93.51;;
43385;Laerm;28988;48.042;7.584;2023-05-10T11:13:02;84.16;-57.68;93.35;;
43385;Laerm;28988;48.042;7.584;2023-05-10T11:15:34;84.16;-26.60;93.80;;
43385;Laerm;28988;48.042;7.584;2023-05-10T11:18:16;84.17;-57.68;93.86;;
43385;Laerm;28988;48.042;7.584;2023-05-10T11:20:41;84.17;-57.68;93.47;;
43385;Laerm;28988;48.042;7.584;2023-05-10T11:23:13;84.19;-40.41;93.80;;
43385;Laerm;28988;48.042;7.584;2023-05-10T11:25:44;84.18;-28.29;93.76;;
43385;Laerm;28988;48.042;7.584;2023-05-10T11:28:10;84.21;-34.16;94.10;;
43385;Laerm;28988;48.042;7.584;2023-05-10T11:30:35;84.19;-57.68;93.68;;
43385;Laerm;28988;48.042;7.584;2023-05-10T11:33:01;84.18;-26.87;94.12;;
43385;Laerm;28988;48.042;7.584;2023-05-10T11:35:27;84.20;-20.54;93.86;;
43385;Laerm;28988;48.042;7.584;2023-05-10T11:37:52;84.19;-33.10;93.53;;
43385;Laerm;28988;48.042;7.584;2023-05-10T11:40:17;84.19;-57.68;93.81;;
43385;Laerm;28988;48.042;7.584;2023-05-10T11:42:43;84.20;-57.68;94.51;;
43385;Laerm;28988;48.042;7.584;2023-05-10T11:45:08;84.19;-57.68;93.99;;
43385;Laerm;28988;48.042;7.584;2023-05-10T11:47:33;84.20;-22.63;93.68;;
43385;Laerm;28988;48.042;7.584;2023-05-10T11:50:00;84.18;-23.73;93.96;;
43385;Laerm;28988;48.042;7.584;2023-05-10T11:52:25;84.17;-33.10;93.68;;
43385;Laerm;28988;48.042;7.584;2023-05-10T11:54:51;84.17;-57.68;93.99;;
43385;Laerm;28988;48.042;7.584;2023-05-10T11:57:18;84.17;-33.10;93.64;;
43385;Laerm;28988;48.042;7.584;2023-05-10T11:59:43;84.17;-28.29;93.39;;
43385;Laerm;28988;48.042;7.584;2023-05-10T12:02:08;84.16;-33.10;93.52;;
43385;Laerm;28988;48.042;7.584;2023-05-10T12:04:33;84.16;-57.68;93.96;;
43385;Laerm;28988;48.042;7.584;2023-05-10T12:06:58;84.16;-34.16;93.52;;
43385;Laerm;28988;48.042;7.584;2023-05-10T12:09:24;84.16;-33.10;93.49;;
43385;Laerm;28988;48.042;7.584;2023-05-10T12:11:49;84.15;-57.68;93.63;;
43385;Laerm;28988;48.042;7.584;2023-05-10T12:14:20;84.15;-23.73;93.85;;
43385;Laerm;28988;48.042;7.584;2023-05-10T12:16:46;84.16;-57.68;94.37;;
43385;Laerm;28988;48.042;7.584;2023-05-10T12:19:12;84.16;-57.68;94.00;;
43385;Laerm;28988;48.042;7.584;2023-05-10T12:21:37;84.16;-33.10;93.65;;
43385;Laerm;28988;48.042;7.584;2023-05-10T12:24:03;84.18;-57.68;94.05;;
43385;Laerm;28988;48.042;7.584;2023-05-10T12:26:30;84.17;-47.13;93.81;;
43385;Laerm;28988;48.042;7.584;2023-05-10T12:29:01;84.19;-34.16;93.68;;
43385;Laerm;28988;48.042;7.584;2023-05-10T12:31:48;84.19;-57.68;94.17;;
43385;Laerm;28988;48.042;7.584;2023-05-10T12:34:22;84.20;-33.10;94.84;;
43385;Laerm;28988;48.042;7.584;2023-05-10T12:36:49;84.19;-57.68;94.11;;
43385;Laerm;28988;48.042;7.584;2023-05-10T12:39:15;84.20;-57.68;94.00;;
43385;Laerm;28988;48.042;7.584;2023-05-10T12:41:40;84.21;-57.68;94.47;;
43385;Laerm;28988;48.042;7.584;2023-05-10T12:44:05;84.22;-28.29;94.71;;
43385;Laerm;28988;48.042;7.584;2023-05-10T12:46:30;84.23;-28.29;94.78;;
43385;Laerm;28988;48.042;7.584;2023-05-10T12:48:56;84.25;-27.54;94.66;;
43385;Laerm;28988;48.042;7.584;2023-05-10T12:51:21;84.25;-57.68;95.22;;
43385;Laerm;28988;48.042;7.584;2023-05-10T12:53:47;84.27;-57.68;95.10;;
43385;Laerm;28988;48.042;7.584;2023-05-10T12:56:12;84.26;-28.29;94.73;;
43385;Laerm;28988;48.042;7.584;2023-05-10T12:58:38;84.26;-40.41;94.96;;
43385;Laerm;28988;48.042;7.584;2023-05-10T13:01:04;84.31;-28.29;95.15;;
43385;Laerm;28988;48.042;7.584;2023-05-10T13:03:29;84.31;-41.34;95.29;;
43385;Laerm;28988;48.042;7.584;2023-05-10T13:05:55;84.29;-31.18;95.10;;
43385;Laerm;28988;48.042;7.584;2023-05-10T13:08:20;84.26;-26.30;95.13;;
43385;Laerm;28988;48.042;7.584;2023-05-10T13:10:45;84.26;-57.68;95.27;;
43385;Laerm;28988;48.042;7.584;2023-05-10T13:13:11;84.23;-33.10;94.82;;
43385;Laerm;28988;48.042;7.584;2023-05-10T13:15:36;84.20;-28.29;94.40;;
43385;Laerm;28988;48.042;7.584;2023-05-10T13:18:01;84.19;-57.68;94.05;;
43385;Laerm;28988;48.042;7.584;2023-05-10T13:20:26;84.16;-57.68;93.98;;
43385;Laerm;28988;48.042;7.584;2023-05-10T13:22:52;84.16;-33.10;93.34;;
43385;Laerm;28988;48.042;7.584;2023-05-10T13:25:17;84.16;-57.68;93.66;;
43385;Laerm;28988;48.042;7.584;2023-05-10T13:27:42;84.15;-35.96;93.70;;
43385;Laerm;28988;48.042;7.584;2023-05-10T13:30:08;84.18;-57.68;93.70;;
43385;Laerm;28988;48.042;7.584;2023-05-10T13:32:33;84.17;-33.10;93.31;;
43385;Laerm;28988;48.042;7.584;2023-05-10T13:34:58;84.17;-57.68;93.64;;
43385;Laerm;28988;48.042;7.584;2023-05-10T13:37:24;84.17;-23.73;93.84;;
43385;Laerm;28988;48.042;7.584;2023-05-10T13:39:49;84.17;-33.10;93.99;;
43385;Laerm;28988;48.042;7.584;2023-05-10T13:42:14;84.17;-57.68;93.53;;
43385;Laerm;28988;48.042;7.584;2023-05-10T13:44:39;84.17;-57.68;94.43;;
43385;Laerm;28988;48.042;7.584;2023-05-10T13:47:05;84.16;-57.68;93.89;;